sensor_id;sensor_type;location;lat;lon;timestamp;pressure;altitude;pressure_sealevel;temperature;humidity
64343;BME280;50675;53.530;-6.312;2023-08-31T00:27:30;100184.03;;;17.27;60.73
64343;BME280;50675;53.530;-6.312;2023-08-31T00:31:00;100175.66;;;17.23;60.37
64343;BME280;50675;53.530;-6.312;2023-08-31T00:34:34;100177.97;;;17.16;60.54
64343;BME280;50675;53.530;-6.312;2023-08-31T00:37:32;100172.13;;;17.09;60.56
64343;BME280;50675;53.530;-6.312;2023-08-31T00:41:07;100177.47;;;17.14;60.63
64343;BME280;50675;53.530;-6.312;2023-08-31T01:18:18;100160.06;;;16.96;60.94
64343;BME280;50675;53.530;-6.312;2023-08-31T01:21:37;100140.88;;;16.88;60.98
64343;BME280;50675;53.530;-6.312;2023-08-31T02:01:01;100126.31;;;17.06;61.39
64343;BME280;50675;53.530;-6.312;2023-08-31T02:19:27;100107.09;;;17.11;61.56
64343;BME280;50675;53.530;-6.312;2023-08-31T02:33:28;100099.16;;;17.01;61.70
64343;BME280;50675;53.530;-6.312;2023-08-31T03:50:01;100012.75;;;16.42;62.11
64343;BME280;50675;53.530;-6.312;2023-08-31T03:56:33;100005.09;;;16.44;61.83
64343;BME280;50675;53.530;-6.312;2023-08-31T03:59:20;100008.59;;;16.44;62.07
64343;BME280;50675;53.530;-6.312;2023-08-31T04:02:03;100013.13;;;16.49;62.03
64343;BME280;50675;53.530;-6.312;2023-08-31T04:04:57;100000.41;;;16.44;62.05
64343;BME280;50675;53.530;-6.312;2023-08-31T04:07:51;100013.38;;;16.52;62.10
64343;BME280;50675;53.530;-6.312;2023-08-31T04:10:28;100011.66;;;16.56;62.20
64343;BME280;50675;53.530;-6.312;2023-08-31T04:13:37;100013.38;;;16.52;62.09
64343;BME280;50675;53.530;-6.312;2023-08-31T04:17:03;100007.09;;;16.52;62.09
64343;BME280;50675;53.530;-6.312;2023-08-31T04:19:34;99991.22;;;16.40;62.16
64343;BME280;50675;53.530;-6.312;2023-08-31T04:22:28;100005.28;;;16.47;62.17
64343;BME280;50675;53.530;-6.312;2023-08-31T04:32:36;99991.13;;;16.45;62.21
64343;BME280;50675;53.530;-6.312;2023-08-31T04:35:34;100006.72;;;16.58;62.38
64343;BME280;50675;53.530;-6.312;2023-08-31T04:42:03;100006.72;;;16.58;62.35
64343;BME280;50675;53.530;-6.312;2023-08-31T04:44:34;99992.56;;;16.56;62.44
64343;BME280;50675;53.530;-6.312;2023-08-31T04:47:45;100004.50;;;16.60;62.34
64343;BME280;50675;53.530;-6.312;2023-08-31T04:53:38;99987.53;;;16.63;62.32
64343;BME280;50675;53.530;-6.312;2023-08-31T04:56:40;99982.06;;;16.63;62.16
64343;BME280;50675;53.530;-6.312;2023-08-31T04:59:27;99983.69;;;16.65;62.17
64343;BME280;50675;53.530;-6.312;2023-08-31T05:02:03;99980.38;;;16.68;62.48
64343;BME280;50675;53.530;-6.312;2023-08-31T05:04:40;99972.97;;;16.68;62.47
64343;BME280;50675;53.530;-6.312;2023-08-31T05:07:27;99980.47;;;16.63;62.53
64343;BME280;50675;53.530;-6.312;2023-08-31T05:10:20;99992.88;;;16.69;62.41
64343;BME280;50675;53.530;-6.312;2023-08-31T05:12:58;99978.13;;;16.70;62.54
64343;BME280;50675;53.530;-6.312;2023-08-31T05:15:48;99975.03;;;16.63;62.55
64343;BME280;50675;53.530;-6.312;2023-08-31T05:19:23;99968.03;;;16.70;62.62
64343;BME280;50675;53.530;-6.312;2023-08-31T05:22:05;99982.38;;;16.76;62.77
64343;BME280;50675;53.530;-6.312;2023-08-31T05:25:05;99970.06;;;16.65;62.67
64343;BME280;50675;53.530;-6.312;2023-08-31T05:27:43;99977.50;;;16.73;62.70
64343;BME280;50675;53.530;-6.312;2023-08-31T05:30:35;99962.97;;;16.63;62.72
64343;BME280;50675;53.530;-6.312;2023-08-31T05:33:42;99963.09;;;16.72;62.63
64343;BME280;50675;53.530;-6.312;2023-08-31T05:36:22;99968.56;;;16.72;62.71
64343;BME280;50675;53.530;-6.312;2023-08-31T05:54:25;99961.47;;;16.71;62.85
64343;BME280;50675;53.530;-6.312;2023-08-31T05:57:36;99953.50;;;16.61;62.79
64343;BME280;50675;53.530;-6.312;2023-08-31T06:00:49;99964.56;;;16.78;62.48
64343;BME280;50675;53.530;-6.312;2023-08-31T06:03:43;99972.75;;;16.78;62.86
64343;BME280;50675;53.530;-6.312;2023-08-31T06:06:57;99956.13;;;16.66;62.86
64343;BME280;50675;53.530;-6.312;2023-08-31T06:10:42;99966.19;;;16.79;62.96
64343;BME280;50675;53.530;-6.312;2023-08-31T06:20:14;99934.50;;;16.70;63.03
64343;BME280;50675;53.530;-6.312;2023-08-31T06:27:30;99942.66;;;16.83;62.92
64343;BME280;50675;53.530;-6.312;2023-08-31T06:30:25;99942.88;;;16.73;63.02
64343;BME280;50675;53.530;-6.312;2023-08-31T06:38:01;99961.41;;;16.98;62.86
64343;BME280;50675;53.530;-6.312;2023-08-31T06:41:28;99961.72;;;16.97;62.92
64343;BME280;50675;53.530;-6.312;2023-08-31T06:44:13;99961.03;;;16.91;62.88
64343;BME280;50675;53.530;-6.312;2023-08-31T06:47:20;99979.22;;;16.96;63.13
64343;BME280;50675;53.530;-6.312;2023-08-31T06:50:27;99972.53;;;16.88;62.95
64343;BME280;50675;53.530;-6.312;2023-08-31T06:53:57;99957.06;;;16.97;63.00
64343;BME280;50675;53.530;-6.312;2023-08-31T06:56:44;99960.22;;;16.91;63.17
64343;BME280;50675;53.530;-6.312;2023-08-31T06:59:21;99957.88;;;16.98;63.22
64343;BME280;50675;53.530;-6.312;2023-08-31T07:05:00;99953.66;;;16.78;62.96
64343;BME280;50675;53.530;-6.312;2023-08-31T07:11:25;99960.41;;;16.94;63.24
64343;BME280;50675;53.530;-6.312;2023-08-31T07:14:05;99950.31;;;16.95;63.20
64343;BME280;50675;53.530;-6.312;2023-08-31T07:17:11;99937.88;;;16.89;63.01
64343;BME280;50675;53.530;-6.312;2023-08-31T07:26:25;99947.94;;;17.02;63.03
64343;BME280;50675;53.530;-6.312;2023-08-31T07:29:42;99947.59;;;16.95;63.08
64343;BME280;50675;53.530;-6.312;2023-08-31T07:35:50;99959.38;;;17.04;63.07
64343;BME280;50675;53.530;-6.312;2023-08-31T07:38:27;99940.00;;;16.92;63.24
64343;BME280;50675;53.530;-6.312;2023-08-31T07:44:56;99943.41;;;16.97;63.28
64343;BME280;50675;53.530;-6.312;2023-08-31T07:47:55;99934.53;;;16.92;62.91
64343;BME280;50675;53.530;-6.312;2023-08-31T07:51:04;99951.25;;;17.13;63.20
64343;BME280;50675;53.530;-6.312;2023-08-31T07:54:21;99948.47;;;17.26;63.35
64343;BME280;50675;53.530;-6.312;2023-08-31T07:57:36;99964.31;;;17.38;63.18
64343;BME280;50675;53.530;-6.312;2023-08-31T08:03:34;99955.06;;;17.47;63.41
64343;BME280;50675;53.530;-6.312;2023-08-31T08:06:28;99965.44;;;17.37;63.37
64343;BME280;50675;53.530;-6.312;2023-08-31T08:09:00;99942.47;;;17.38;63.49
64343;BME280;50675;53.530;-6.312;2023-08-31T08:11:38;99964.94;;;17.57;63.17
64343;BME280;50675;53.530;-6.312;2023-08-31T08:14:33;99955.19;;;17.42;63.48
64343;BME280;50675;53.530;-6.312;2023-08-31T08:17:06;99951.16;;;17.40;63.21
64343;BME280;50675;53.530;-6.312;2023-08-31T08:19:59;99930.97;;;17.49;63.32
64343;BME280;50675;53.530;-6.312;2023-08-31T08:25:55;99937.69;;;17.43;63.30
64343;BME280;50675;53.530;-6.312;2023-08-31T08:28:55;99932.59;;;17.28;63.37
64343;BME280;50675;53.530;-6.312;2023-08-31T08:32:00;99917.78;;;17.43;63.39
64343;BME280;50675;53.530;-6.312;2023-08-31T08:39:04;99940.22;;;17.18;63.50
64343;BME280;50675;53.530;-6.312;2023-08-31T08:42:24;99932.38;;;17.38;63.47
64343;BME280;50675;53.530;-6.312;2023-08-31T08:45:01;99930.28;;;17.44;63.47
64343;BME280;50675;53.530;-6.312;2023-08-31T08:48:20;99934.03;;;17.70;63.57
64343;BME280;50675;53.530;-6.312;2023-08-31T08:51:03;99934.00;;;17.62;63.49
64343;BME280;50675;53.530;-6.312;2023-08-31T08:54:29;99953.13;;;17.92;63.43
64343;BME280;50675;53.530;-6.312;2023-08-31T09:00:51;99934.03;;;18.01;63.78
64343;BME280;50675;53.530;-6.312;2023-08-31T09:03:56;99946.38;;;17.90;63.51
64343;BME280;50675;53.530;-6.312;2023-08-31T09:07:13;99955.69;;;18.20;63.68
64343;BME280;50675;53.530;-6.312;2023-08-31T09:10:16;99935.72;;;18.19;63.60
64343;BME280;50675;53.530;-6.312;2023-08-31T09:13:10;99952.03;;;18.33;63.72
64343;BME280;50675;53.530;-6.312;2023-08-31T09:16:06;99951.06;;;18.38;63.59
64343;BME280;50675;53.530;-6.312;2023-08-31T09:18:58;99951.72;;;18.43;63.61
64343;BME280;50675;53.530;-6.312;2023-08-31T09:22:01;99936.16;;;18.52;63.47
64343;BME280;50675;53.530;-6.312;2023-08-31T09:25:17;99961.81;;;18.73;63.57
64343;BME280;50675;53.530;-6.312;2023-08-31T09:28:11;99941.81;;;18.64;63.24
64343;BME280;50675;53.530;-6.312;2023-08-31T09:30:48;99962.59;;;18.74;63.71
64343;BME280;50675;53.530;-6.312;2023-08-31T09:33:27;99944.72;;;18.59;63.36
64343;BME280;50675;53.530;-6.312;2023-08-31T09:36:44;99957.94;;;18.83;63.46
64343;BME280;50675;53.530;-6.312;2023-08-31T09:47:45;99942.19;;;18.97;63.40
64343;BME280;50675;53.530;-6.312;2023-08-31T09:50:11;99943.31;;;18.96;63.42
64343;BME280;50675;53.530;-6.312;2023-08-31T09:52:37;99950.25;;;19.11;63.36
64343;BME280;50675;53.530;-6.312;2023-08-31T09:55:04;99954.59;;;19.12;63.13
64343;BME280;50675;53.530;-6.312;2023-08-31T09:57:31;99946.06;;;19.22;63.22
64343;BME280;50675;53.530;-6.312;2023-08-31T10:03:57;99942.06;;;19.19;63.16
64343;BME280;50675;53.530;-6.312;2023-08-31T10:06:56;99953.81;;;19.37;62.93
64343;BME280;50675;53.530;-6.312;2023-08-31T10:10:02;99935.13;;;19.13;62.78
64343;BME280;50675;53.530;-6.312;2023-08-31T10:13:03;99933.81;;;19.11;62.92
64343;BME280;50675;53.530;-6.312;2023-08-31T10:16:28;99930.78;;;19.12;63.06
64343;BME280;50675;53.530;-6.312;2023-08-31T10:22:44;99942.53;;;19.04;63.15
64343;BME280;50675;53.530;-6.312;2023-08-31T10:26:10;99940.59;;;19.05;62.88
64343;BME280;50675;53.530;-6.312;2023-08-31T10:28:44;99943.00;;;18.89;63.25
64343;BME280;50675;53.530;-6.312;2023-08-31T10:31:28;99952.00;;;18.81;63.23
64343;BME280;50675;53.530;-6.312;2023-08-31T10:34:54;99942.69;;;18.91;62.98
64343;BME280;50675;53.530;-6.312;2023-08-31T10:38:04;99927.84;;;18.83;63.19
64343;BME280;50675;53.530;-6.312;2023-08-31T10:47:12;99923.03;;;18.80;63.18
64343;BME280;50675;53.530;-6.312;2023-08-31T10:53:33;99947.66;;;18.89;63.12
64343;BME280;50675;53.530;-6.312;2023-08-31T10:56:09;99947.66;;;18.89;63.02
64343;BME280;50675;53.530;-6.312;2023-08-31T10:59:04;99941.69;;;18.78;63.22
64343;BME280;50675;53.530;-6.312;2023-08-31T11:06:24;99925.31;;;18.95;63.47
64343;BME280;50675;53.530;-6.312;2023-08-31T11:09:26;99934.31;;;19.04;63.38
64343;BME280;50675;53.530;-6.312;2023-08-31T11:12:28;99922.06;;;19.10;63.34
64343;BME280;50675;53.530;-6.312;2023-08-31T11:26:00;99930.44;;;19.22;63.72
64343;BME280;50675;53.530;-6.312;2023-08-31T11:38:35;99920.13;;;19.45;63.39
64343;BME280;50675;53.530;-6.312;2023-08-31T11:45:04;99943.75;;;19.84;63.49
64343;BME280;50675;53.530;-6.312;2023-08-31T11:48:20;99914.13;;;19.69;63.80
64343;BME280;50675;53.530;-6.312;2023-08-31T11:51:31;99925.75;;;19.66;63.73
64343;BME280;50675;53.530;-6.312;2023-08-31T11:54:21;99924.09;;;19.74;63.54
64343;BME280;50675;53.530;-6.312;2023-08-31T12:04:42;99936.34;;;19.85;63.68
64343;BME280;50675;53.530;-6.312;2023-08-31T12:11:40;99928.47;;;19.75;63.37
64343;BME280;50675;53.530;-6.312;2023-08-31T12:18:38;99946.19;;;19.77;63.40
64343;BME280;50675;53.530;-6.312;2023-08-31T12:21:44;99938.78;;;19.69;63.65
64343;BME280;50675;53.530;-6.312;2023-08-31T12:28:01;99940.25;;;19.58;63.81
64343;BME280;50675;53.530;-6.312;2023-08-31T12:30:55;99955.72;;;19.71;63.41
64343;BME280;50675;53.530;-6.312;2023-08-31T12:33:50;99935.09;;;19.65;63.59
64343;BME280;50675;53.530;-6.312;2023-08-31T12:36:33;99937.19;;;19.68;63.49
64343;BME280;50675;53.530;-6.312;2023-08-31T12:45:59;99935.94;;;20.03;63.74
64343;BME280;50675;53.530;-6.312;2023-08-31T12:53:21;99928.59;;;20.25;63.66
64343;BME280;50675;53.530;-6.312;2023-08-31T12:56:46;99940.91;;;20.57;63.87
64343;BME280;50675;53.530;-6.312;2023-08-31T13:00:00;99953.19;;;20.50;63.80
64343;BME280;50675;53.530;-6.312;2023-08-31T13:15:17;99913.66;;;20.72;63.84
64343;BME280;50675;53.530;-6.312;2023-08-31T13:25:55;99905.16;;;20.65;63.89
64343;BME280;50675;53.530;-6.312;2023-08-31T13:32:04;99892.66;;;20.76;63.56
64343;BME280;50675;53.530;-6.312;2023-08-31T13:35:24;99885.81;;;20.82;63.43
64343;BME280;50675;53.530;-6.312;2023-08-31T13:39:04;99895.53;;;20.80;63.71
64343;BME280;50675;53.530;-6.312;2023-08-31T13:42:47;99898.75;;;21.03;63.53
64343;BME280;50675;53.530;-6.312;2023-08-31T13:46:47;99906.28;;;21.06;63.72
64343;BME280;50675;53.530;-6.312;2023-08-31T14:10:09;99906.13;;;21.31;63.17
64343;BME280;50675;53.530;-6.312;2023-08-31T14:20:38;99921.53;;;21.24;63.01
64343;BME280;50675;53.530;-6.312;2023-08-31T14:34:49;99923.59;;;21.06;62.63
64343;BME280;50675;53.530;-6.312;2023-08-31T14:37:59;99937.31;;;21.06;62.40
64343;BME280;50675;53.530;-6.312;2023-08-31T14:41:35;99923.94;;;21.05;62.30
64343;BME280;50675;53.530;-6.312;2023-08-31T14:50:56;99919.22;;;20.64;62.20
64343;BME280;50675;53.530;-6.312;2023-08-31T14:54:18;99939.91;;;20.61;62.15
64343;BME280;50675;53.530;-6.312;2023-08-31T15:00:19;99931.19;;;20.59;62.26
64343;BME280;50675;53.530;-6.312;2023-08-31T15:03:12;99940.47;;;20.46;61.89
64343;BME280;50675;53.530;-6.312;2023-08-31T15:10:35;99916.72;;;20.50;61.85
64343;BME280;50675;53.530;-6.312;2023-08-31T15:14:07;99942.34;;;20.54;61.89
64343;BME280;50675;53.530;-6.312;2023-08-31T15:20:51;99926.38;;;20.56;62.33
64343;BME280;50675;53.530;-6.312;2023-08-31T15:23:56;99918.94;;;20.57;61.95
64343;BME280;50675;53.530;-6.312;2023-08-31T15:27:00;99921.44;;;20.70;62.04
64343;BME280;50675;53.530;-6.312;2023-08-31T15:30:39;99921.13;;;20.72;61.97
64343;BME280;50675;53.530;-6.312;2023-08-31T15:34:03;99911.31;;;20.83;62.21
64343;BME280;50675;53.530;-6.312;2023-08-31T15:37:04;99939.94;;;21.03;61.99
64343;BME280;50675;53.530;-6.312;2023-08-31T15:47:56;99935.44;;;20.98;62.07
64343;BME280;50675;53.530;-6.312;2023-08-31T15:51:29;99911.19;;;20.79;61.91
64343;BME280;50675;53.530;-6.312;2023-08-31T15:54:46;99916.88;;;20.74;62.16
64343;BME280;50675;53.530;-6.312;2023-08-31T16:01:16;99923.00;;;20.50;61.73
64343;BME280;50675;53.530;-6.312;2023-08-31T16:10:18;99908.69;;;20.45;61.71
64343;BME280;50675;53.530;-6.312;2023-08-31T16:13:13;99923.53;;;20.44;61.72
64343;BME280;50675;53.530;-6.312;2023-08-31T16:16:32;99913.28;;;20.32;62.13
64343;BME280;50675;53.530;-6.312;2023-08-31T16:19:45;99918.38;;;20.42;61.95
64343;BME280;50675;53.530;-6.312;2023-08-31T16:22:58;99897.28;;;20.34;61.73
64343;BME280;50675;53.530;-6.312;2023-08-31T16:29:57;99903.50;;;20.05;62.01
64343;BME280;50675;53.530;-6.312;2023-08-31T16:36:21;99904.03;;;19.99;62.02
64343;BME280;50675;53.530;-6.312;2023-08-31T16:39:09;99894.25;;;19.89;62.22
64343;BME280;50675;53.530;-6.312;2023-08-31T16:45:46;99889.47;;;19.69;62.28
64343;BME280;50675;53.530;-6.312;2023-08-31T16:52:30;99898.69;;;20.02;62.13
64343;BME280;50675;53.530;-6.312;2023-08-31T16:55:36;99919.31;;;20.08;61.99
64343;BME280;50675;53.530;-6.312;2023-08-31T16:58:50;99917.81;;;20.20;62.15
64343;BME280;50675;53.530;-6.312;2023-08-31T17:08:37;99931.56;;;20.11;62.36
64343;BME280;50675;53.530;-6.312;2023-08-31T17:15:02;99927.53;;;20.08;62.40
64343;BME280;50675;53.530;-6.312;2023-08-31T17:29:41;99947.97;;;20.20;62.44
64343;BME280;50675;53.530;-6.312;2023-08-31T17:32:49;99941.72;;;20.19;62.38
64343;BME280;50675;53.530;-6.312;2023-08-31T17:35:32;99940.41;;;20.17;62.62
64343;BME280;50675;53.530;-6.312;2023-08-31T17:41:33;99936.06;;;20.16;62.25
64343;BME280;50675;53.530;-6.312;2023-08-31T17:44:11;99919.97;;;20.05;62.42
64343;BME280;50675;53.530;-6.312;2023-08-31T17:47:13;99915.72;;;19.79;62.08
64343;BME280;50675;53.530;-6.312;2023-08-31T17:50:25;99906.34;;;19.88;62.66
64343;BME280;50675;53.530;-6.312;2023-08-31T17:53:44;99925.00;;;20.03;62.51
64343;BME280;50675;53.530;-6.312;2023-08-31T17:56:56;99926.00;;;19.90;62.39
64343;BME280;50675;53.530;-6.312;2023-08-31T17:59:51;99934.38;;;19.94;62.39
64343;BME280;50675;53.530;-6.312;2023-08-31T18:02:39;99925.53;;;19.88;62.36
64343;BME280;50675;53.530;-6.312;2023-08-31T18:09:52;99938.47;;;19.71;62.69
64343;BME280;50675;53.530;-6.312;2023-08-31T18:12:44;99942.16;;;19.75;62.86
64343;BME280;50675;53.530;-6.312;2023-08-31T18:16:14;99924.16;;;19.56;62.83
64343;BME280;50675;53.530;-6.312;2023-08-31T18:19:31;99930.78;;;19.47;62.59
64343;BME280;50675;53.530;-6.312;2023-08-31T18:25:43;99930.63;;;19.52;62.49
64343;BME280;50675;53.530;-6.312;2023-08-31T18:28:40;99920.59;;;19.39;62.54
64343;BME280;50675;53.530;-6.312;2023-08-31T18:31:37;99919.50;;;19.22;62.68
64343;BME280;50675;53.530;-6.312;2023-08-31T18:38:27;99921.09;;;19.32;62.77
64343;BME280;50675;53.530;-6.312;2023-08-31T18:41:21;99925.28;;;19.30;63.05
64343;BME280;50675;53.530;-6.312;2023-08-31T18:44:19;99913.06;;;19.18;62.77
64343;BME280;50675;53.530;-6.312;2023-08-31T18:50:54;99922.56;;;19.12;62.78
64343;BME280;50675;53.530;-6.312;2023-08-31T18:53:56;99916.28;;;19.12;62.77
64343;BME280;50675;53.530;-6.312;2023-08-31T18:56:38;99920.94;;;19.11;62.82
64343;BME280;50675;53.530;-6.312;2023-08-31T18:59:37;99915.81;;;19.10;63.10
64343;BME280;50675;53.530;-6.312;2023-08-31T19:06:16;99931.25;;;19.23;63.39
64343;BME280;50675;53.530;-6.312;2023-08-31T19:12:35;99943.00;;;19.15;63.12
64343;BME280;50675;53.530;-6.312;2023-08-31T19:19:14;99917.72;;;19.18;63.46
64343;BME280;50675;53.530;-6.312;2023-08-31T19:25:36;99941.22;;;19.10;63.28
64343;BME280;50675;53.530;-6.312;2023-08-31T19:28:14;99922.06;;;19.10;63.14
64343;BME280;50675;53.530;-6.312;2023-08-31T19:31:45;99918.69;;;19.13;63.12
64343;BME280;50675;53.530;-6.312;2023-08-31T19:44:53;99955.41;;;19.12;63.34
64343;BME280;50675;53.530;-6.312;2023-08-31T19:48:11;99947.84;;;19.09;63.60
64343;BME280;50675;53.530;-6.312;2023-08-31T19:51:12;99960.22;;;19.07;63.58
64343;BME280;50675;53.530;-6.312;2023-08-31T19:54:15;99936.25;;;19.04;63.70
64343;BME280;50675;53.530;-6.312;2023-08-31T20:00:15;99952.19;;;19.02;63.79
64343;BME280;50675;53.530;-6.312;2023-08-31T20:03:20;99945.59;;;19.11;63.78
64343;BME280;50675;53.530;-6.312;2023-08-31T20:10:09;99967.16;;;19.04;63.76
64343;BME280;50675;53.530;-6.312;2023-08-31T22:53:38;99996.81;;;19.28;65.12
64343;BME280;50675;53.530;-6.312;2023-08-31T23:03:02;100005.34;;;19.27;65.25
64343;BME280;50675;53.530;-6.312;2023-08-31T23:06:05;100028.88;;;19.36;64.87
64343;BME280;50675;53.530;-6.312;2023-08-31T23:09:30;100010.66;;;19.23;65.43
64343;BME280;50675;53.530;-6.312;2023-08-31T23:12:29;100005.34;;;19.27;65.45
64343;BME280;50675;53.530;-6.312;2023-08-31T23:15:34;100023.69;;;19.35;65.07
64343;BME280;50675;53.530;-6.312;2023-08-31T23:18:45;100016.31;;;19.27;65.20
64343;BME280;50675;53.530;-6.312;2023-08-31T23:21:33;100020.97;;;19.26;65.45
64343;BME280;50675;53.530;-6.312;2023-08-31T23:24:24;100031.91;;;19.35;65.20
64343;BME280;50675;53.530;-6.312;2023-08-31T23:27:52;100040.47;;;19.33;65.31
64343;BME280;50675;53.530;-6.312;2023-08-31T23:30:41;100028.88;;;19.28;65.43
64343;BME280;50675;53.530;-6.312;2023-08-31T23:33:58;100021.28;;;19.24;65.13
64343;BME280;50675;53.530;-6.312;2023-08-31T23:36:59;100027.56;;;19.25;65.20
64343;BME280;50675;53.530;-6.312;2023-08-31T23:40:34;100030.47;;;19.29;65.61
64343;BME280;50675;53.530;-6.312;2023-08-31T23:48:00;100045.97;;;19.33;65.51
64343;BME280;50675;53.530;-6.312;2023-08-31T23:50:51;100018.06;;;19.22;65.25
64343;BME280;50675;53.530;-6.312;2023-08-31T23:54:11;100035.81;;;19.34;65.39
